Sheldon Junction, Vermont
Current Conditions -  °F | °C
As of 6:15 PM on Wednesday 17 Dec 2014 (Local Time) from KFSO Reporting Station
Moderate Fog Moderate Fog  
Wind Chill: 33°   Ceiling: 200
Heat Index: 33°   Visibility: 0.25mi
Dew Point: 33°   Wind: 0mph
Humidity: 99%   Direction: NA
Pressure: 29.77"   Gusts: NA
Location:  44.8776°N, 72.9201°W
Report Text: KFSO 172315Z AUTO 00000KT 1/4SM FG OVC002 01/01 A2977 RMK AO2 T00060005
Loading
Personal Weather Stations






























Interactive Weather Map New forecast layout! Learn more

10-Day Weather Forecast

Advertisements
Track Severe Weather on mobile